Emerson, NJ (07630)

11:31 AM EST on March 05, 2015 (GMT -0500)
KNJEMERS3 | Change Station
CLOSE
Current Station
Personal Weather Station
Location: Emerson, NJ
Elevation: 82 ft
Nearby Weather Stations
Active Advisory: Winter Weather Advisory Active Notice: Public Information Statement

Elev 82 ft 40.98 °N, 74.04 °W | Updated 1 minute ago

Snow
Snow
23.9 °F
Feels Like 24 °F
N
2.0
Wind Variable Wind from WNW
Gusts 6.0 mph

Today
High -- | Low -- °F
--% Chance of Precip.
Yesterday
High -- | Low -- °F
Precip. -- in
6:24 AM 5:51 PM
Full, 100% visible
Pressure 30.13 in
Visibility 0.5 miles
Clouds
Windchill 24 °F
Dew Point 21 °F
Humidity 89%
Rainfall in
Snow Depth Not available.
UV Not available.
Pollen .60 out of 12
Air Quality Not available.
Flu Activity Not available.
METAR KTEB 051551Z 33010KT 1/2SM R06/3500V5000FT +SN FZFG VV012 M04/M06 A3013 RMK AO2 SLP202 P0005 T10391061

More Conditions Fewer Conditions

Pressure 30.13 in
Visibility 0.5 miles
Clouds
Windchill 24 °F
Dew Point 21 °F
Humidity 89%
Rainfall in
Snow Depth Not available.
UV Not available.
Pollen .60 out of 12
Air Quality Not available.
Flu Activity Not available.
METAR KTEB 051551Z 33010KT 1/2SM R06/3500V5000FT +SN FZFG VV012 M04/M06 A3013 RMK AO2 SLP202 P0005 T10391061

More Conditions Fewer Conditions

10-Day Weather Forecast

Almanac

Astronomy

Mar. 05, 2015 Rise Set
Actual Time
Civil Twilight
Nautical Twilight
Astronomical Twilight
Moon
Length of Visible Light
Length of Day
Tomorrow will be .
, % of the Moon is Illuminated

Today's Extremes

State Highs State Lows

Community

WunderPhotos

Upload Photos

1,802,849 photos uploaded!

WunderBlogs® & News

Nearby

Air Quality

  Air Quality AQ Index Pollutant
Not available.

Snow Depth

Station Depth Elevation

Earthquake Activity

City Distance Mag. Time & Date
Minimum magnitude displayed is 2.5.

Coastal Water Temperatures

Place Temperature

Nearby Weather Stations

Winter Weather Advisory
Statement as of 3:41 AM EST on March 05, 2015

... Winter Weather Advisory remains in effect until 7 PM EST this
evening...

* locations... coastal Connecticut... interior parts of northeast
New Jersey... and Rockland and Westchester counties in New York.

* Hazard types... snow.

* Accumulations... snow accumulation of 2 to 5 inches.

* Timing... snow... moderate at times this morning into early
afternoon... before tapering off this afternoon.

* Visibilities... one half mile or less at times.

* Temperatures... mid 30s early this morning... dropping into the
lower 20s by this afternoon.

* Impacts... hazardous travel conditions due to falling
temperatures and Road icing... reduced visibilities and
accumulating snow.

Precautionary/preparedness actions...

A Winter Weather Advisory means that periods of snow... sleet... or
freezing rain will cause travel difficulties. Be prepared for
slippery roads and limited visibilities... and use caution while
driving.